Time;durP1;ratioP1;P1;durP2;ratioP2;P2;SDS_P1;SDS_P2;PMS_P1;PMS_P2;Temp;Humidity;BMP_temperature;BMP_pressure;BME280_temperature;BME280_humidity;BME280_pressure;Samples;Min_cycle;Max_cycle;Signal;HPM_P1;HPM_P2
2021/03/30 00:01:51;;;;;;;;;;;7.00;99.90;;;;;;10352947;28;19928;-82
2021/03/30 00:06:52;;;;;;;;;;;7.00;99.90;;;;;;10371023;28;19944;-81
2021/03/30 00:11:53;;;;;;;;;;;6.80;99.90;;;;;;10370486;28;19965;-82
2021/03/30 00:16:55;;;;;;;;;;;6.70;99.90;;;;;;10368225;28;20354;-82
2021/03/30 00:21:56;;;;;;;;;;;6.70;99.90;;;;;;10370392;28;20005;-82
2021/03/30 00:26:57;;;;;;;;;;;6.60;99.90;;;;;;10349131;28;19922;-82
2021/03/30 00:31:59;;;;;;;;;;;6.60;99.90;;;;;;10353620;28;19929;-82
2021/03/30 00:37:00;;;;;;;;;;;6.60;99.90;;;;;;10369975;28;20011;-82
2021/03/30 00:42:01;;;;;;;;;;;6.50;99.90;;;;;;10368777;28;19971;-82
2021/03/30 00:47:04;;;;;;;;;;;6.50;99.90;;;;;;10369512;28;19967;-82
2021/03/30 00:52:05;;;;;;;;;;;6.40;99.90;;;;;;10368780;28;19961;-82
2021/03/30 00:57:07;;;;;;;;;;;6.40;99.90;;;;;;10367129;28;20374;-82
2021/03/30 01:02:08;;;;;;;;;;;6.30;99.90;;;;;;10367391;28;19976;-82
2021/03/30 01:07:10;;;;;;;;;;;6.20;99.90;;;;;;10369573;28;19933;-82
2021/03/30 01:12:29;;;;;;;;;;;6.10;99.90;;;;;;10370546;28;20045;-82
2021/03/30 01:17:34;;;;;;;;;;;6.00;99.90;;;;;;10369694;28;19957;-82
2021/03/30 01:22:45;;;;;;;;;;;5.90;99.90;;;;;;10351321;28;20004;-82
2021/03/30 01:28:02;;;;;;;;;;;5.80;99.90;;;;;;10367731;28;19951;-82
2021/03/30 01:33:09;;;;;;;;;;;5.70;99.90;;;;;;10367303;28;19925;-82
2021/03/30 01:38:12;;;;;;;;;;;5.50;99.90;;;;;;10365946;28;20005;-82
2021/03/30 01:43:15;;;;;;;;;;;5.50;99.90;;;;;;10366885;28;20004;-82
2021/03/30 01:48:16;;;;;;;;;;;5.40;99.90;;;;;;10366860;28;20024;-82
2021/03/30 01:53:19;;;;;;;;;;;5.30;99.90;;;;;;10350193;28;19956;-82
2021/03/30 01:58:21;;;;;;;;;;;5.30;99.90;;;;;;10348888;28;19957;-82
2021/03/30 02:03:23;;;;;;;;;;;5.30;99.90;;;;;;10348087;28;19926;-82
2021/03/30 02:08:26;;;;;;;;;;;5.20;99.90;;;;;;10372205;28;19975;-82
2021/03/30 02:18:47;;;;;;;;;;;5.10;99.90;;;;;;10374037;28;19929;-82
2021/03/30 02:23:49;;;;;;;;;;;5.10;99.90;;;;;;10375092;28;19964;-82
2021/03/30 02:28:54;;;;;;;;;;;5.00;99.90;;;;;;10357021;28;20000;-82
2021/03/30 02:33:57;;;;;;;;;;;5.00;99.90;;;;;;10374596;28;19921;-82
2021/03/30 02:39:10;;;;;;;;;;;4.90;99.90;;;;;;10374219;28;20008;-82
2021/03/30 02:44:13;;;;;;;;;;;4.80;99.90;;;;;;10373816;28;19952;-82
2021/03/30 02:49:15;;;;;;;;;;;4.70;99.90;;;;;;10373983;28;20383;-83
2021/03/30 02:54:17;;;;;;;;;;;4.70;99.90;;;;;;10356081;28;19948;-82
2021/03/30 02:59:19;;;;;;;;;;;4.70;99.90;;;;;;10366620;28;19956;-83
2021/03/30 03:04:20;;;;;;;;;;;4.60;99.90;;;;;;10368443;28;19953;-81
2021/03/30 03:09:23;;;;;;;;;;;4.50;99.90;;;;;;10351528;28;19960;-82
2021/03/30 03:14:25;;;;;;;;;;;4.40;99.90;;;;;;10359889;28;19922;-81
2021/03/30 03:19:27;;;;;;;;;;;4.30;99.90;;;;;;10331329;28;20015;-81
2021/03/30 03:24:28;;;;;;;;;;;4.10;99.90;;;;;;10354535;28;20550;-81
2021/03/30 03:29:30;;;;;;;;;;;4.10;99.90;;;;;;10362192;28;20450;-81
2021/03/30 03:34:31;;;;;;;;;;;4.10;99.90;;;;;;10362710;28;20386;-81
2021/03/30 03:39:34;;;;;;;;;;;4.10;99.90;;;;;;10357310;28;20041;-81
2021/03/30 03:44:35;;;;;;;;;;;4.00;99.90;;;;;;10357572;28;20015;-81
2021/03/30 03:49:37;;;;;;;;;;;3.90;99.90;;;;;;10361019;28;20686;-81
2021/03/30 03:54:39;;;;;;;;;;;3.90;99.90;;;;;;10355547;28;20012;-81
2021/03/30 03:59:44;;;;;;;;;;;3.90;99.90;;;;;;10354890;28;19921;-82
2021/03/30 04:04:54;;;;;;;;;;;3.80;99.90;;;;;;10359431;28;20594;-81
2021/03/30 04:09:57;;;;;;;;;;;3.60;99.90;;;;;;10360270;28;19922;-82
2021/03/30 04:14:58;;;;;;;;;;;3.60;99.90;;;;;;10350392;28;19956;-82
2021/03/30 04:20:03;;;;;;;;;;;3.60;99.90;;;;;;10365121;28;19921;-82
2021/03/30 04:25:05;;;;;;;;;;;3.60;99.90;;;;;;10359865;28;19972;-82
2021/03/30 04:30:07;;;;;;;;;;;3.60;99.90;;;;;;10364484;28;20002;-81
2021/03/30 04:35:09;;;;;;;;;;;3.50;99.90;;;;;;10364941;28;19926;-82
2021/03/30 04:40:12;;;;;;;;;;;3.50;99.90;;;;;;10370991;28;19957;-82
2021/03/30 04:45:14;;;;;;;;;;;3.40;99.90;;;;;;10354235;28;20011;-82
2021/03/30 04:50:15;;;;;;;;;;;3.30;99.90;;;;;;10371718;28;19921;-82
2021/03/30 04:55:16;;;;;;;;;;;3.30;99.90;;;;;;10371216;28;20441;-82
2021/03/30 05:00:18;;;;;;;;;;;3.30;99.90;;;;;;10371418;28;19925;-82
2021/03/30 05:05:20;;;;;;;;;;;3.30;99.90;;;;;;10371598;28;20012;-82
2021/03/30 05:10:21;;;;;;;;;;;3.30;99.90;;;;;;10370133;28;20393;-82
2021/03/30 05:15:22;;;;;;;;;;;3.20;99.90;;;;;;10370774;28;19960;-82
2021/03/30 05:20:24;;;;;;;;;;;3.10;99.90;;;;;;10369081;28;19971;-82
2021/03/30 05:25:25;;;;;;;;;;;3.20;99.90;;;;;;10352593;28;19922;-82
2021/03/30 05:30:27;;;;;;;;;;;3.20;99.90;;;;;;10369838;28;20004;-82
2021/03/30 05:35:28;;;;;;;;;;;3.20;99.90;;;;;;10369542;28;20419;-82
2021/03/30 05:40:29;;;;;;;;;;;3.20;99.90;;;;;;10369623;28;19987;-82
2021/03/30 05:45:31;;;;;;;;;;;3.30;99.90;;;;;;10368822;28;19968;-82
2021/03/30 05:50:34;;;;;;;;;;;3.30;99.90;;;;;;10385004;28;19921;-82
2021/03/30 05:55:37;;;;;;;;;;;3.40;99.90;;;;;;10368659;28;20325;-82
2021/03/30 06:00:41;;;;;;;;;;;3.40;99.90;;;;;;10369170;28;19967;-82
2021/03/30 06:05:42;;;;;;;;;;;3.50;99.90;;;;;;10369017;28;20027;-82
2021/03/30 06:10:44;;;;;;;;;;;3.60;99.90;;;;;;10368466;28;20357;-82
2021/03/30 06:15:46;;;;;;;;;;;3.60;99.90;;;;;;10334004;28;19922;-82
2021/03/30 06:20:47;;;;;;;;;;;3.70;99.90;;;;;;10327290;28;19961;-82
2021/03/30 06:25:50;;;;;;;;;;;3.80;99.90;;;;;;10330421;28;19968;-82
2021/03/30 06:31:03;;;;;;;;;;;4.00;99.90;;;;;;10326559;28;20012;-82
2021/03/30 06:36:12;;;;;;;;;;;4.20;99.90;;;;;;10326960;28;19976;-82
2021/03/30 06:41:26;;;;;;;;;;;4.30;99.90;;;;;;10309540;28;19976;-82
2021/03/30 06:46:27;;;;;;;;;;;4.60;99.90;;;;;;10309260;28;19969;-82
2021/03/30 06:51:38;;;;;;;;;;;4.60;99.90;;;;;;10326583;28;19964;-82
2021/03/30 06:56:46;;;;;;;;;;;4.70;99.90;;;;;;10326121;28;20331;-82
2021/03/30 07:01:52;;;;;;;;;;;4.90;99.90;;;;;;10325501;28;20001;-82
2021/03/30 07:06:54;;;;;;;;;;;5.10;99.90;;;;;;10325770;28;20782;-82
2021/03/30 07:11:55;;;;;;;;;;;5.10;99.90;;;;;;10308770;28;19925;-82
2021/03/30 07:16:57;;;;;;;;;;;5.30;99.90;;;;;;10320959;28;19967;-82
2021/03/30 07:22:10;;;;;;;;;;;5.50;99.90;;;;;;10365934;28;20016;-82
2021/03/30 07:27:13;;;;;;;;;;;5.80;99.90;;;;;;10343704;28;19928;-81
2021/03/30 07:32:18;;;;;;;;;;;6.00;99.90;;;;;;10374988;28;19928;-82
2021/03/30 07:37:45;;;;;;;;;;;6.20;99.90;;;;;;10359580;28;19925;-82
2021/03/30 07:42:48;;;;;;;;;;;6.20;99.90;;;;;;10330592;28;19928;-81
2021/03/30 07:47:51;;;;;;;;;;;6.40;99.90;;;;;;10365269;28;20028;-82
2021/03/30 07:52:53;;;;;;;;;;;7.00;99.90;;;;;;10365423;28;19921;-82
2021/03/30 07:57:54;;;;;;;;;;;7.80;99.90;;;;;;10365290;28;19956;-81
2021/03/30 08:02:56;;;;;;;;;;;8.50;99.90;;;;;;10365623;28;19921;-81
2021/03/30 08:07:58;;;;;;;;;;;9.20;99.90;;;;;;10365305;28;19967;-81
2021/03/30 08:19:12;;;;;;;;;;;10.10;99.90;;;;;;10346601;28;20602;-88
2021/03/30 08:24:14;;;;;;;;;;;10.50;98.40;;;;;;10373865;28;19952;-88
2021/03/30 08:29:19;;;;;;;;;;;10.70;95.70;;;;;;10373368;28;19922;-88
2021/03/30 08:34:22;;;;;;;;;;;11.20;92.30;;;;;;10371581;28;19925;-87
2021/03/30 08:39:24;;;;;;;;;;;11.50;90.10;;;;;;10372272;28;19921;-87
2021/03/30 08:44:44;;;;;;;;;;;11.80;82.60;;;;;;10372903;28;20287;-87
2021/03/30 08:50:10;;;;;;;;;;;11.80;81.80;;;;;;10372866;28;19948;-87
2021/03/30 08:55:12;;;;;;;;;;;12.30;79.30;;;;;;10373773;28;19925;-87
2021/03/30 09:00:15;;;;;;;;;;;12.60;77.10;;;;;;10355489;28;19929;-89
2021/03/30 09:05:18;;;;;;;;;;;12.90;76.00;;;;;;10372495;28;19922;-86
2021/03/30 09:10:19;;;;;;;;;;;13.10;74.80;;;;;;10355554;28;19961;-85
2021/03/30 09:15:21;;;;;;;;;;;13.30;70.20;;;;;;10372975;28;19926;-85
2021/03/30 09:20:24;;;;;;;;;;;13.60;69.60;;;;;;10372174;28;19992;-85
2021/03/30 09:30:35;;;;;;;;;;;13.90;68.30;;;;;;10367361;28;19921;-84
2021/03/30 09:35:38;;;;;;;;;;;14.00;65.10;;;;;;10366520;28;19925;-85
2021/03/30 09:40:41;;;;;;;;;;;14.20;65.30;;;;;;10370473;28;19929;-85
2021/03/30 09:45:43;;;;;;;;;;;14.60;61.50;;;;;;10370105;28;19952;-85
2021/03/30 09:50:46;;;;;;;;;;;14.90;59.80;;;;;;10370010;28;19927;-84
2021/03/30 09:55:48;;;;;;;;;;;15.20;57.60;;;;;;10368789;28;19956;-85
2021/03/30 10:00:50;;;;;;;;;;;15.20;56.80;;;;;;10368204;28;19921;-85
2021/03/30 10:05:51;;;;;;;;;;;15.40;56.20;;;;;;10368945;28;19957;-85
2021/03/30 10:10:54;;;;;;;;;;;15.60;56.00;;;;;;10361345;28;20421;-86
2021/03/30 10:15:56;;;;;;;;;;;15.80;53.00;;;;;;10369295;28;20008;-86
2021/03/30 10:21:00;;;;;;;;;;;16.20;52.90;;;;;;10369534;28;19948;-85
2021/03/30 10:26:18;;;;;;;;;;;16.30;51.10;;;;;;10346713;28;20684;-86
2021/03/30 10:31:39;;;;;;;;;;;16.60;49.90;;;;;;10369823;28;19925;-86
2021/03/30 10:36:40;;;;;;;;;;;16.60;48.90;;;;;;10359423;28;19972;-86
2021/03/30 10:41:42;;;;;;;;;;;16.70;48.70;;;;;;10352728;28;19928;-87
2021/03/30 10:46:45;;;;;;;;;;;16.90;48.40;;;;;;10369629;28;20049;-86
2021/03/30 10:51:46;;;;;;;;;;;17.10;47.50;;;;;;10368567;28;19956;-86
2021/03/30 10:56:48;;;;;;;;;;;17.20;47.30;;;;;;10352897;28;20003;-86
2021/03/30 11:01:49;;;;;;;;;;;17.30;46.30;;;;;;10368929;28;19952;-86
2021/03/30 11:06:50;;;;;;;;;;;17.30;46.80;;;;;;10368214;28;20105;-86
2021/03/30 11:11:53;;;;;;;;;;;17.40;45.70;;;;;;10369916;28;19952;-85
2021/03/30 11:16:54;;;;;;;;;;;17.60;46.80;;;;;;10368990;28;20344;-86
2021/03/30 11:21:56;;;;;;;;;;;17.70;45.80;;;;;;10367537;28;19921;-86
2021/03/30 11:26:58;;;;;;;;;;;17.90;45.90;;;;;;10350202;28;19921;-86
2021/03/30 11:42:32;;;;;;;;;;;18.40;43.80;;;;;;10367721;28;19944;-86
2021/03/30 11:47:33;;;;;;;;;;;18.60;42.50;;;;;;10387122;28;19921;-86
2021/03/30 11:52:35;;;;;;;;;;;18.90;42.00;;;;;;10391380;28;20009;-86
2021/03/30 11:57:36;;;;;;;;;;;19.10;42.40;;;;;;10375872;28;20350;-86
2021/03/30 12:02:38;;;;;;;;;;;19.30;42.60;;;;;;10374991;28;19922;-86
2021/03/30 12:07:39;;;;;;;;;;;19.50;40.30;;;;;;10375793;28;19925;-86
2021/03/30 12:12:52;;;;;;;;;;;19.70;41.40;;;;;;10374766;28;19925;-86
2021/03/30 12:17:54;;;;;;;;;;;19.80;41.70;;;;;;10378793;28;19964;-86
2021/03/30 12:22:55;;;;;;;;;;;20.00;38.40;;;;;;10384919;28;20352;-86
2021/03/30 12:27:56;;;;;;;;;;;20.10;39.60;;;;;;10389917;28;19937;-87
2021/03/30 12:32:58;;;;;;;;;;;20.30;40.10;;;;;;10374929;28;19925;-86
2021/03/30 12:38:24;;;;;;;;;;;20.30;36.70;;;;;;10374159;28;20291;-86
2021/03/30 12:43:25;;;;;;;;;;;20.50;37.00;;;;;;10352686;28;19921;-86
2021/03/30 12:48:27;;;;;;;;;;;20.60;37.70;;;;;;10356361;28;19968;-86
2021/03/30 12:53:29;;;;;;;;;;;20.60;38.20;;;;;;10372263;28;19964;-86
2021/03/30 12:58:34;;;;;;;;;;;20.70;36.40;;;;;;10372344;28;19969;-87
2021/03/30 13:03:42;;;;;;;;;;;20.60;36.10;;;;;;10364089;28;20319;-88
2021/03/30 13:08:44;;;;;;;;;;;20.80;35.90;;;;;;10371196;28;19988;-86
2021/03/30 13:13:47;;;;;;;;;;;20.90;36.00;;;;;;10368444;28;20382;-87
2021/03/30 13:18:48;;;;;;;;;;;21.20;37.30;;;;;;10371832;28;19976;-87
2021/03/30 13:24:12;;;;;;;;;;;21.20;34.70;;;;;;10373304;28;19929;-87
2021/03/30 13:29:13;;;;;;;;;;;21.40;35.80;;;;;;10372307;28;20519;-87
2021/03/30 13:34:15;;;;;;;;;;;21.50;35.40;;;;;;10373094;28;19922;-87
2021/03/30 13:39:23;;;;;;;;;;;21.60;34.00;;;;;;10372640;28;20336;-87
2021/03/30 13:44:25;;;;;;;;;;;21.70;34.20;;;;;;10372198;28;19953;-87
2021/03/30 13:49:28;;;;;;;;;;;21.60;33.10;;;;;;10371641;28;20351;-87
2021/03/30 13:54:29;;;;;;;;;;;21.70;34.80;;;;;;10370743;28;20382;-87
2021/03/30 13:59:30;;;;;;;;;;;21.80;33.90;;;;;;10372015;28;19971;-88
2021/03/30 14:04:32;;;;;;;;;;;21.90;32.40;;;;;;10372264;28;19921;-87
2021/03/30 14:09:34;;;;;;;;;;;21.80;33.70;;;;;;10352966;28;19973;-87
2021/03/30 14:14:38;;;;;;;;;;;21.90;33.90;;;;;;10344941;28;19925;-87
2021/03/30 14:19:44;;;;;;;;;;;22.00;34.30;;;;;;10330041;28;20037;-87
2021/03/30 14:24:59;;;;;;;;;;;22.00;32.70;;;;;;10330488;28;19972;-87
2021/03/30 14:30:01;;;;;;;;;;;22.00;32.20;;;;;;10329651;28;20483;-88
2021/03/30 14:35:03;;;;;;;;;;;22.10;34.10;;;;;;10329940;28;20414;-88
2021/03/30 14:46:44;;;;;;;;;;;22.00;32.70;;;;;;10330401;28;20032;-88
2021/03/30 14:57:10;;;;;;;;;;;22.00;33.10;;;;;;10329373;28;19925;-88
2021/03/30 15:07:19;;;;;;;;;;;22.00;31.90;;;;;;10326678;28;19929;-83
2021/03/30 15:12:20;;;;;;;;;;;22.00;32.10;;;;;;10309063;28;19968;-83
2021/03/30 15:17:22;;;;;;;;;;;22.10;31.20;;;;;;10307764;28;19921;-81
2021/03/30 15:22:23;;;;;;;;;;;22.00;31.40;;;;;;10340293;28;20300;-80
2021/03/30 15:27:24;;;;;;;;;;;22.20;32.60;;;;;;10350048;28;19933;-82
2021/03/30 15:32:26;;;;;;;;;;;22.10;32.00;;;;;;10365788;28;19968;-82
2021/03/30 15:37:27;;;;;;;;;;;22.00;32.60;;;;;;10366364;28;20658;-83
2021/03/30 15:42:29;;;;;;;;;;;21.90;31.30;;;;;;10341847;28;19922;-81
2021/03/30 15:47:30;;;;;;;;;;;21.90;32.50;;;;;;10347913;28;19926;-81
2021/03/30 15:52:33;;;;;;;;;;;21.90;33.40;;;;;;10368590;28;19955;-87
2021/03/30 15:57:36;;;;;;;;;;;21.70;31.00;;;;;;10366702;28;19921;-86
2021/03/30 16:02:45;;;;;;;;;;;21.70;33.30;;;;;;10366946;28;19931;-86
2021/03/30 16:07:47;;;;;;;;;;;21.60;32.90;;;;;;10350939;28;19957;-86
2021/03/30 16:12:48;;;;;;;;;;;21.40;33.10;;;;;;10350243;28;19968;-87
2021/03/30 16:17:49;;;;;;;;;;;21.30;34.20;;;;;;10365574;28;19922;-86
2021/03/30 16:22:51;;;;;;;;;;;21.20;33.40;;;;;;10365370;28;20066;-86
2021/03/30 16:27:52;;;;;;;;;;;20.90;34.00;;;;;;10366703;28;19925;-86
2021/03/30 16:32:53;;;;;;;;;;;20.80;34.80;;;;;;10368812;28;19921;-86
2021/03/30 16:37:55;;;;;;;;;;;20.70;35.00;;;;;;10374125;28;20342;-86
2021/03/30 16:42:56;;;;;;;;;;;20.60;35.90;;;;;;10373498;28;20391;-86
2021/03/30 16:47:57;;;;;;;;;;;20.50;35.00;;;;;;10373482;28;20438;-86
2021/03/30 16:52:59;;;;;;;;;;;20.40;36.60;;;;;;10373735;28;19922;-86
2021/03/30 16:58:00;;;;;;;;;;;20.20;37.80;;;;;;10372975;28;19967;-85
2021/03/30 17:03:02;;;;;;;;;;;20.00;36.50;;;;;;10373419;28;19967;-86
2021/03/30 17:08:03;;;;;;;;;;;19.80;37.70;;;;;;10388298;28;19925;-86
2021/03/30 17:13:04;;;;;;;;;;;19.70;38.80;;;;;;10372602;28;19955;-86
2021/03/30 17:18:06;;;;;;;;;;;19.50;38.00;;;;;;10372851;28;19952;-86
2021/03/30 17:23:15;;;;;;;;;;;19.30;38.20;;;;;;10330722;28;20390;-87
2021/03/30 17:28:17;;;;;;;;;;;19.10;37.30;;;;;;10363655;28;19921;-87
2021/03/30 17:33:18;;;;;;;;;;;19.00;36.70;;;;;;10372597;28;19921;-86
2021/03/30 17:38:19;;;;;;;;;;;18.90;38.00;;;;;;10378035;28;19928;-86
2021/03/30 17:43:21;;;;;;;;;;;18.60;38.50;;;;;;10371843;28;19960;-86
2021/03/30 17:48:23;;;;;;;;;;;18.40;39.10;;;;;;10371659;28;20004;-86
2021/03/30 17:53:24;;;;;;;;;;;18.10;40.20;;;;;;10371908;28;19928;-86
2021/03/30 17:58:25;;;;;;;;;;;18.00;38.20;;;;;;10371406;28;19975;-86
2021/03/30 18:03:27;;;;;;;;;;;17.90;40.90;;;;;;10371095;28;19925;-77
2021/03/30 18:08:28;;;;;;;;;;;17.50;41.70;;;;;;10367747;28;19921;-77
2021/03/30 18:13:30;;;;;;;;;;;17.10;41.20;;;;;;10368798;28;19929;-78
2021/03/30 18:18:31;;;;;;;;;;;16.80;42.00;;;;;;10367747;28;19921;-77
2021/03/30 18:23:33;;;;;;;;;;;16.60;42.10;;;;;;10367768;28;20263;-78
2021/03/30 18:28:36;;;;;;;;;;;16.30;44.10;;;;;;10367060;28;20326;-78
2021/03/30 18:33:38;;;;;;;;;;;16.10;44.50;;;;;;10367250;28;19928;-78
2021/03/30 18:38:39;;;;;;;;;;;15.80;44.90;;;;;;10367252;28;19925;-78
2021/03/30 18:43:41;;;;;;;;;;;15.60;46.20;;;;;;10364342;28;19964;-77
2021/03/30 18:48:43;;;;;;;;;;;15.30;46.10;;;;;;10366643;28;19921;-78
2021/03/30 18:53:45;;;;;;;;;;;15.20;47.10;;;;;;10367175;28;19976;-78
2021/03/30 18:58:51;;;;;;;;;;;15.00;47.60;;;;;;10366105;28;19932;-78
2021/03/30 19:03:52;;;;;;;;;;;14.90;48.20;;;;;;10366184;28;20349;-77
2021/03/30 19:08:54;;;;;;;;;;;14.70;48.70;;;;;;10366763;28;19933;-78
2021/03/30 19:13:55;;;;;;;;;;;14.50;48.90;;;;;;10366374;28;20363;-78
2021/03/30 19:18:56;;;;;;;;;;;14.40;48.80;;;;;;10380685;28;19921;-78
2021/03/30 19:23:58;;;;;;;;;;;14.10;49.10;;;;;;10363661;28;19921;-78
2021/03/30 19:29:07;;;;;;;;;;;13.90;49.90;;;;;;10361058;28;19991;-78
2021/03/30 19:34:10;;;;;;;;;;;13.80;50.60;;;;;;10364551;28;19933;-78
2021/03/30 19:39:12;;;;;;;;;;;13.70;50.80;;;;;;10365961;28;20003;-77
2021/03/30 19:44:13;;;;;;;;;;;13.50;51.30;;;;;;10365560;28;19952;-78
2021/03/30 19:49:15;;;;;;;;;;;13.30;51.40;;;;;;10365113;28;20846;-78
2021/03/30 19:54:16;;;;;;;;;;;13.20;52.10;;;;;;10353101;28;20092;-78
2021/03/30 19:59:17;;;;;;;;;;;13.00;52.60;;;;;;10340931;28;20572;-78
2021/03/30 20:04:19;;;;;;;;;;;12.80;53.40;;;;;;10363508;28;19921;-78
2021/03/30 20:09:21;;;;;;;;;;;12.70;53.60;;;;;;10352750;28;20012;-78
2021/03/30 20:14:22;;;;;;;;;;;12.40;54.20;;;;;;10372057;28;19968;-78
2021/03/30 20:19:24;;;;;;;;;;;12.30;54.70;;;;;;10372102;28;19953;-79
2021/03/30 20:24:25;;;;;;;;;;;12.30;54.80;;;;;;10372290;28;19964;-79
2021/03/30 20:29:26;;;;;;;;;;;12.10;55.00;;;;;;10339753;28;19922;-79
2021/03/30 20:34:28;;;;;;;;;;;12.00;55.60;;;;;;10372378;28;19921;-79
2021/03/30 20:39:29;;;;;;;;;;;11.80;56.30;;;;;;10371879;28;19922;-79
2021/03/30 20:44:31;;;;;;;;;;;11.60;57.40;;;;;;10371557;28;19925;-79
2021/03/30 20:49:32;;;;;;;;;;;11.40;56.80;;;;;;10353750;28;20016;-79
2021/03/30 20:54:34;;;;;;;;;;;11.20;57.30;;;;;;10370560;28;19929;-79
2021/03/30 20:59:36;;;;;;;;;;;11.20;57.30;;;;;;10370807;28;19964;-79
2021/03/30 21:04:38;;;;;;;;;;;11.10;57.80;;;;;;10370401;28;20018;-79
2021/03/30 21:09:39;;;;;;;;;;;10.70;58.70;;;;;;10352929;28;19921;-79
2021/03/30 21:14:40;;;;;;;;;;;10.60;58.60;;;;;;10370097;28;19929;-78
2021/03/30 21:19:42;;;;;;;;;;;10.50;59.80;;;;;;10369532;28;19925;-79
2021/03/30 21:24:43;;;;;;;;;;;10.50;60.30;;;;;;10367400;28;19925;-79
2021/03/30 21:29:44;;;;;;;;;;;10.50;60.60;;;;;;10365664;28;19967;-79
2021/03/30 21:34:46;;;;;;;;;;;10.20;62.80;;;;;;10369034;28;20434;-79
2021/03/30 21:39:48;;;;;;;;;;;10.20;63.40;;;;;;10368816;28;19922;-79
2021/03/30 21:44:49;;;;;;;;;;;10.10;63.80;;;;;;10368697;28;19929;-79
2021/03/30 21:49:51;;;;;;;;;;;10.10;64.60;;;;;;10352255;28;19925;-79
2021/03/30 21:54:52;;;;;;;;;;;10.00;65.00;;;;;;10360277;28;19922;-79
2021/03/30 21:59:54;;;;;;;;;;;10.00;65.30;;;;;;10368165;28;20000;-79
2021/03/30 22:04:55;;;;;;;;;;;9.90;66.80;;;;;;10368015;28;19921;-79
2021/03/30 22:10:17;;;;;;;;;;;9.80;67.50;;;;;;10367773;28;20012;-79
2021/03/30 22:15:20;;;;;;;;;;;9.70;68.70;;;;;;10350733;28;19949;-79
2021/03/30 22:20:25;;;;;;;;;;;9.50;70.70;;;;;;10367305;28;20326;-79
2021/03/30 22:25:27;;;;;;;;;;;9.50;72.60;;;;;;10358839;28;19953;-79
2021/03/30 22:30:33;;;;;;;;;;;9.50;73.90;;;;;;10358279;28;20468;-79
2021/03/30 22:35:35;;;;;;;;;;;9.40;75.20;;;;;;10349700;28;20346;-79
2021/03/30 22:40:38;;;;;;;;;;;9.40;76.00;;;;;;10366858;28;20411;-79
2021/03/30 22:45:39;;;;;;;;;;;9.20;78.00;;;;;;10364764;28;19998;-79
2021/03/30 22:50:41;;;;;;;;;;;9.00;80.10;;;;;;10365750;28;19921;-79
2021/03/30 22:55:43;;;;;;;;;;;8.90;83.50;;;;;;10366643;28;19922;-79
2021/03/30 23:00:45;;;;;;;;;;;8.80;85.80;;;;;;10365956;28;19975;-79
2021/03/30 23:05:46;;;;;;;;;;;8.80;88.40;;;;;;10366121;28;19927;-79
2021/03/30 23:10:48;;;;;;;;;;;8.60;90.10;;;;;;10365530;28;19972;-79
2021/03/30 23:15:49;;;;;;;;;;;8.50;91.90;;;;;;10366134;28;19925;-79
2021/03/30 23:20:51;;;;;;;;;;;8.40;93.90;;;;;;10365566;28;19956;-79
2021/03/30 23:25:52;;;;;;;;;;;8.30;93.70;;;;;;10353677;28;19922;-79
2021/03/30 23:30:53;;;;;;;;;;;8.10;96.20;;;;;;10340217;28;19953;-79
2021/03/30 23:35:55;;;;;;;;;;;8.10;97.60;;;;;;10346343;28;19936;-79
2021/03/30 23:40:56;;;;;;;;;;;8.00;99.10;;;;;;10365840;28;20016;-78
2021/03/30 23:45:57;;;;;;;;;;;8.00;99.50;;;;;;10378080;28;19960;-79
2021/03/30 23:50:59;;;;;;;;;;;7.90;99.90;;;;;;10378675;28;19926;-78
2021/03/30 23:56:00;;;;;;;;;;;7.80;99.90;;;;;;10377865;28;19921;-78
